Back to Top

Language: 

My Weather Underground Personal Weather Station Historical Data with Graphs...

Delerius Weather Station Historical Data
Daily Summary for November 28, 2017 Units:  English    Metric   Both
« Previous Day
Next Day »
Daily Weekly Monthly Yearly Custom
  High: Low: Average:
Temperature: 43.2 °F 36.9 °F 39.7 °F
Dew Point: 37.5 °F 32.8 °F 35.1 °F
Humidity: 91 % 73 % 84 %
Wind Speed: 13.0 mph 4.0 mph 7.1 mph
Wind Gust: 22.0 mph - -
Wind:- - NW
Pressure: 29.83 in 29.72 in -
Precipitation: 0.00 in    
Historical Graphs
 
 
Tabular Data for November 28, 2017
Time Temperature Dew Point Pressure Wind Wind Speed Wind Gust Humidity Rainfall Rate (Hourly) solar Conditions
00:04 39.2 °F 36.5 °F 29.72 in WNW 5.0 mph 8.0 mph 90 % 0.00 in 0 W/m2
00:09 39.2 °F 36.5 °F 29.72 in WNW 5.0 mph 8.0 mph 90 % 0.00 in 0 W/m2
00:14 39.2 °F 36.5 °F 29.72 in WNW 5.0 mph 9.0 mph 90 % 0.00 in 0 W/m2
00:19 39.4 °F 36.7 °F 29.72 in WNW 6.0 mph 8.0 mph 90 % 0.00 in 0 W/m2
00:24 39.4 °F 36.7 °F 29.72 in NW 5.0 mph 8.0 mph 90 % 0.00 in 0 W/m2
00:29 39.4 °F 36.7 °F 29.72 in NW 5.0 mph 8.0 mph 90 % 0.00 in 0 W/m2
00:34 39.4 °F 36.7 °F 29.72 in WNW 6.0 mph 9.0 mph 90 % 0.00 in 0 W/m2
00:39 39.4 °F 36.7 °F 29.72 in NW 6.0 mph 8.0 mph 90 % 0.00 in 0 W/m2
00:44 39.4 °F 36.7 °F 29.72 in WNW 5.0 mph 8.0 mph 90 % 0.00 in 0 W/m2
00:49 39.4 °F 36.7 °F 29.72 in WNW 5.0 mph 7.0 mph 90 % 0.00 in 0 W/m2
00:54 39.4 °F 37.0 °F 29.72 in NW 6.0 mph 10.0 mph 91 % 0.00 in 0 W/m2
00:59 39.6 °F 37.2 °F 29.72 in WNW 5.0 mph 7.0 mph 91 % 0.00 in 0 W/m2
01:04 39.6 °F 37.2 °F 29.73 in NW 6.0 mph 8.0 mph 91 % 0.00 in 0 W/m2
01:09 39.7 °F 37.3 °F 29.73 in NW 5.0 mph 9.0 mph 91 % 0.00 in 0 W/m2
01:14 39.7 °F 37.3 °F 29.73 in NW 6.0 mph 10.0 mph 91 % 0.00 in 0 W/m2
01:19 39.9 °F 37.5 °F 29.72 in WNW 7.0 mph 9.0 mph 91 % 0.00 in 0 W/m2
01:24 39.9 °F 37.5 °F 29.72 in WNW 8.0 mph 12.0 mph 91 % 0.00 in 0 W/m2
01:29 39.9 °F 37.2 °F 29.73 in NW 6.0 mph 9.0 mph 90 % 0.00 in 0 W/m2
01:34 40.1 °F 37.4 °F 29.72 in WNW 6.0 mph 10.0 mph 90 % 0.00 in 0 W/m2
01:39 40.1 °F 37.4 °F 29.73 in WNW 6.0 mph 9.0 mph 90 % 0.00 in 0 W/m2
01:44 40.1 °F 37.4 °F 29.72 in WNW 6.0 mph 11.0 mph 90 % 0.00 in 0 W/m2
01:49 40.1 °F 37.4 °F 29.72 in WNW 7.0 mph 11.0 mph 90 % 0.00 in 0 W/m2
01:54 40.1 °F 37.1 °F 29.72 in WNW 7.0 mph 10.0 mph 89 % 0.00 in 0 W/m2
01:59 39.9 °F 36.9 °F 29.72 in WNW 6.0 mph 8.0 mph 89 % 0.00 in 0 W/m2
02:04 39.9 °F 36.9 °F 29.72 in WNW 7.0 mph 10.0 mph 89 % 0.00 in 0 W/m2
02:09 39.9 °F 36.9 °F 29.72 in WNW 6.0 mph 9.0 mph 89 % 0.00 in 0 W/m2
02:14 39.9 °F 36.9 °F 29.73 in NW 6.0 mph 9.0 mph 89 % 0.00 in 0 W/m2
02:19 39.9 °F 36.9 °F 29.72 in NW 6.0 mph 10.0 mph 89 % 0.00 in 0 W/m2
02:25 39.7 °F 36.8 °F 29.73 in NW 7.0 mph 10.0 mph 89 % 0.00 in 0 W/m2
02:30 39.7 °F 36.8 °F 29.73 in WNW 7.0 mph 9.0 mph 89 % 0.00 in 0 W/m2
02:35 39.7 °F 36.8 °F 29.72 in NW 6.0 mph 9.0 mph 89 % 0.00 in 0 W/m2
02:40 39.6 °F 36.3 °F 29.72 in NW 7.0 mph 10.0 mph 88 % 0.00 in 0 W/m2
02:45 39.4 °F 36.4 °F 29.72 in NW 5.0 mph 9.0 mph 89 % 0.00 in 0 W/m2
02:50 39.2 °F 36.2 °F 29.72 in NW 6.0 mph 9.0 mph 89 % 0.00 in 0 W/m2
02:55 39.0 °F 36.1 °F 29.72 in NW 6.0 mph 10.0 mph 89 % 0.00 in 0 W/m2
03:00 39.0 °F 36.1 °F 29.72 in NW 6.0 mph 9.0 mph 89 % 0.00 in 0 W/m2
03:05 38.8 °F 35.9 °F 29.72 in NW 6.0 mph 9.0 mph 89 % 0.00 in 0 W/m2
03:10 38.8 °F 35.9 °F 29.72 in WNW 6.0 mph 9.0 mph 89 % 0.00 in 0 W/m2
03:15 38.7 °F 35.7 °F 29.73 in WNW 7.0 mph 10.0 mph 89 % 0.00 in 0 W/m2
03:20 38.7 °F 35.7 °F 29.73 in WNW 7.0 mph 10.0 mph 89 % 0.00 in 0 W/m2
03:25 38.7 °F 35.7 °F 29.73 in WNW 6.0 mph 10.0 mph 89 % 0.00 in 0 W/m2
03:30 38.7 °F 35.7 °F 29.73 in WNW 6.0 mph 8.0 mph 89 % 0.00 in 0 W/m2
03:35 38.5 °F 35.5 °F 29.73 in NW 4.0 mph 7.0 mph 89 % 0.00 in 0 W/m2
03:40 38.5 °F 35.8 °F 29.73 in WNW 7.0 mph 10.0 mph 90 % 0.00 in 0 W/m2
03:45 38.3 °F 35.6 °F 29.73 in WNW 7.0 mph 10.0 mph 90 % 0.00 in 0 W/m2
03:50 38.3 °F 35.6 °F 29.73 in WNW 7.0 mph 10.0 mph 90 % 0.00 in 0 W/m2
03:55 38.1 °F 35.4 °F 29.73 in NW 5.0 mph 8.0 mph 90 % 0.00 in 0 W/m2
04:01 38.1 °F 35.4 °F 29.73 in WNW 7.0 mph 11.0 mph 90 % 0.00 in 0 W/m2
04:06 38.1 °F 35.4 °F 29.73 in WNW 7.0 mph 11.0 mph 90 % 0.00 in 0 W/m2
04:11 38.1 °F 35.4 °F 29.73 in WNW 7.0 mph 11.0 mph 90 % 0.00 in 0 W/m2
04:16 37.9 °F 35.3 °F 29.73 in WNW 6.0 mph 10.0 mph 90 % 0.00 in 0 W/m2
04:21 37.9 °F 35.3 °F 29.74 in WNW 7.0 mph 9.0 mph 90 % 0.00 in 0 W/m2
04:26 38.1 °F 35.7 °F 29.73 in WNW 7.0 mph 10.0 mph 91 % 0.00 in 0 W/m2
04:31 38.1 °F 35.4 °F 29.73 in WNW 6.0 mph 9.0 mph 90 % 0.00 in 0 W/m2
04:36 38.1 °F 35.7 °F 29.73 in WNW 6.0 mph 10.0 mph 91 % 0.00 in 0 W/m2
04:41 38.1 °F 35.4 °F 29.73 in WNW 5.0 mph 8.0 mph 90 % 0.00 in 0 W/m2
04:46 38.1 °F 35.4 °F 29.74 in WNW 5.0 mph 8.0 mph 90 % 0.00 in 0 W/m2
04:51 38.1 °F 35.4 °F 29.74 in WNW 7.0 mph 10.0 mph 90 % 0.00 in 0 W/m2
04:56 38.3 °F 35.6 °F 29.74 in WNW 6.0 mph 8.0 mph 90 % 0.00 in 0 W/m2
05:01 38.3 °F 35.3 °F 29.74 in WNW 5.0 mph 8.0 mph 89 % 0.00 in 0 W/m2
05:06 38.3 °F 35.3 °F 29.74 in WNW 6.0 mph 9.0 mph 89 % 0.00 in 0 W/m2
05:07 38.3 °F 35.3 °F 29.74 in WNW 6.0 mph 11.0 mph 89 % 0.00 in 0 W/m2
05:12 38.1 °F 34.9 °F 29.74 in WNW 6.0 mph 9.0 mph 88 % 0.00 in 0 W/m2
05:17 38.1 °F 34.9 °F 29.74 in WNW 6.0 mph 10.0 mph 88 % 0.00 in 0 W/m2
05:22 37.9 °F 34.7 °F 29.74 in WNW 6.0 mph 9.0 mph 88 % 0.00 in 0 W/m2
05:27 37.9 °F 34.4 °F 29.74 in WNW 8.0 mph 11.0 mph 87 % 0.00 in 0 W/m2
05:28 37.9 °F 34.4 °F 29.74 in WNW 7.0 mph 11.0 mph 87 % 0.00 in 0 W/m2
05:33 37.9 °F 34.1 °F 29.74 in WNW 7.0 mph 10.0 mph 86 % 0.00 in 0 W/m2
05:38 37.9 °F 34.1 °F 29.74 in WNW 7.0 mph 11.0 mph 86 % 0.00 in 0 W/m2
05:43 37.9 °F 34.1 °F 29.74 in WNW 5.0 mph 7.0 mph 86 % 0.00 in 0 W/m2
05:48 37.8 °F 33.7 °F 29.74 in WNW 7.0 mph 12.0 mph 85 % 0.00 in 0 W/m2
05:53 37.8 °F 33.7 °F 29.74 in WNW 7.0 mph 12.0 mph 85 % 0.00 in 0 W/m2
05:58 37.6 °F 33.5 °F 29.74 in WNW 8.0 mph 11.0 mph 85 % 0.00 in 0 W/m2
06:03 37.6 °F 33.5 °F 29.74 in WNW 6.0 mph 10.0 mph 85 % 0.00 in 0 W/m2
06:08 37.4 °F 33.3 °F 29.74 in WNW 8.0 mph 13.0 mph 85 % 0.00 in 0 W/m2
06:13 37.2 °F 33.1 °F 29.75 in WNW 9.0 mph 12.0 mph 85 % 0.00 in 0 W/m2
06:18 37.2 °F 33.1 °F 29.75 in WNW 7.0 mph 11.0 mph 85 % 0.00 in 0 W/m2
06:19 37.2 °F 33.1 °F 29.75 in WNW 6.0 mph 9.0 mph 85 % 0.00 in 0 W/m2
06:24 37.0 °F 32.9 °F 29.75 in WNW 6.0 mph 8.0 mph 85 % 0.00 in 0 W/m2
06:29 36.9 °F 32.8 °F 29.75 in WNW 7.0 mph 11.0 mph 85 % 0.00 in 0 W/m2
06:34 36.9 °F 32.8 °F 29.74 in WNW 6.0 mph 8.0 mph 85 % 0.00 in 0 W/m2
10:24 40.5 °F 33.5 °F 29.77 in NW 9.0 mph 11.0 mph 76 % 0.00 in 227 W/m2
10:29 40.6 °F 33.7 °F 29.77 in WNW 9.0 mph 14.0 mph 76 % 0.00 in 232 W/m2
10:34 40.8 °F 33.8 °F 29.78 in WNW 9.0 mph 13.0 mph 76 % 0.00 in 241 W/m2
10:39 40.8 °F 33.5 °F 29.78 in WNW 10.0 mph 16.0 mph 75 % 0.00 in 243 W/m2
10:44 41.0 °F 33.7 °F 29.78 in NW 7.0 mph 12.0 mph 75 % 0.00 in 244 W/m2
10:49 41.2 °F 33.9 °F 29.78 in NW 10.0 mph 14.0 mph 75 % 0.00 in 269 W/m2
10:54 41.2 °F 33.9 °F 29.78 in WNW 8.0 mph 13.0 mph 75 % 0.00 in 100 W/m2
10:59 41.0 °F 33.7 °F 29.78 in NW 7.0 mph 10.0 mph 75 % 0.00 in 283 W/m2
11:04 41.2 °F 33.9 °F 29.77 in WNW 8.0 mph 11.0 mph 75 % 0.00 in 265 W/m2
11:09 41.4 °F 34.0 °F 29.78 in NW 9.0 mph 13.0 mph 75 % 0.00 in 269 W/m2
11:14 41.5 °F 34.2 °F 29.77 in NW 6.0 mph 11.0 mph 75 % 0.00 in 269 W/m2
11:19 41.7 °F 34.0 °F 29.77 in NW 6.0 mph 9.0 mph 74 % 0.00 in 272 W/m2
11:24 41.9 °F 34.2 °F 29.77 in NW 10.0 mph 14.0 mph 74 % 0.00 in 272 W/m2
11:29 42.1 °F 34.4 °F 29.78 in NW 8.0 mph 12.0 mph 74 % 0.00 in 290 W/m2
11:35 42.1 °F 34.4 °F 29.78 in NW 9.0 mph 15.0 mph 74 % 0.00 in 318 W/m2
11:40 42.3 °F 34.2 °F 29.77 in NW 9.0 mph 18.0 mph 73 % 0.00 in 279 W/m2
11:45 42.3 °F 34.2 °F 29.77 in NW 12.0 mph 22.0 mph 73 % 0.00 in 283 W/m2
11:50 42.1 °F 34.4 °F 29.76 in NW 10.0 mph 16.0 mph 74 % 0.00 in 281 W/m2
11:55 42.3 °F 34.6 °F 29.77 in NW 9.0 mph 13.0 mph 74 % 0.00 in 232 W/m2
12:00 42.1 °F 34.4 °F 29.77 in NW 13.0 mph 20.0 mph 74 % 0.00 in 295 W/m2
12:05 42.3 °F 34.6 °F 29.77 in NW 11.0 mph 19.0 mph 74 % 0.00 in 162 W/m2
12:10 42.1 °F 34.4 °F 29.76 in NW 12.0 mph 20.0 mph 74 % 0.00 in 123 W/m2
12:15 42.3 °F 34.6 °F 29.77 in NW 10.0 mph 15.0 mph 74 % 0.00 in 316 W/m2
12:20 42.1 °F 34.7 °F 29.77 in NW 8.0 mph 13.0 mph 75 % 0.00 in 287 W/m2
12:25 42.4 °F 35.1 °F 29.77 in NW 8.0 mph 14.0 mph 75 % 0.00 in 311 W/m2
12:30 42.4 °F 35.1 °F 29.77 in NW 6.0 mph 13.0 mph 75 % 0.00 in 137 W/m2
12:35 42.3 °F 34.9 °F 29.77 in NW 7.0 mph 12.0 mph 75 % 0.00 in 113 W/m2
12:45 41.9 °F 34.9 °F 29.77 in NW 7.0 mph 14.0 mph 76 % 0.00 in 113 W/m2
12:50 41.5 °F 34.5 °F 29.77 in NW 7.0 mph 11.0 mph 76 % 0.00 in 65 W/m2
12:55 41.4 °F 34.7 °F 29.77 in NW 8.0 mph 13.0 mph 77 % 0.00 in 67 W/m2
13:00 41.4 °F 35.0 °F 29.77 in WNW 7.0 mph 12.0 mph 78 % 0.00 in 299 W/m2
13:05 41.5 °F 35.2 °F 29.77 in NW 8.0 mph 13.0 mph 78 % 0.00 in 132 W/m2
13:10 41.7 °F 35.0 °F 29.77 in NW 8.0 mph 13.0 mph 77 % 0.00 in 183 W/m2
13:15 42.1 °F 35.7 °F 29.77 in NW 8.0 mph 13.0 mph 78 % 0.00 in 185 W/m2
13:20 42.4 °F 35.7 °F 29.77 in WNW 9.0 mph 13.0 mph 77 % 0.00 in 190 W/m2
13:25 42.6 °F 36.2 °F 29.77 in WNW 8.0 mph 13.0 mph 78 % 0.00 in 290 W/m2
13:30 43.0 °F 36.6 °F 29.77 in WNW 11.0 mph 18.0 mph 78 % 0.00 in 216 W/m2
13:35 43.2 °F 36.4 °F 29.77 in NW 7.0 mph 13.0 mph 77 % 0.00 in 114 W/m2
13:46 43.0 °F 36.6 °F 29.77 in NW 8.0 mph 13.0 mph 78 % 0.00 in 86 W/m2
13:56 42.6 °F 36.2 °F 29.77 in NW 9.0 mph 16.0 mph 78 % 0.00 in 107 W/m2
14:01 42.6 °F 36.6 °F 29.77 in NW 9.0 mph 16.0 mph 79 % 0.00 in 84 W/m2
14:06 42.4 °F 36.4 °F 29.77 in WNW 10.0 mph 15.0 mph 79 % 0.00 in 60 W/m2
14:11 42.4 °F 36.7 °F 29.77 in NW 8.0 mph 13.0 mph 80 % 0.00 in 81 W/m2
14:21 42.3 °F 36.5 °F 29.77 in WNW 9.0 mph 13.0 mph 80 % 0.00 in 125 W/m2
14:23 42.3 °F 36.5 °F 29.77 in NW 8.0 mph 15.0 mph 80 % 0.00 in 125 W/m2
14:33 42.3 °F 36.8 °F 29.77 in NW 9.0 mph 16.0 mph 81 % 0.00 in 49 W/m2
14:38 42.1 °F 36.7 °F 29.77 in NW 8.0 mph 12.0 mph 81 % 0.00 in 62 W/m2
14:43 42.1 °F 36.7 °F 29.77 in NW 7.0 mph 11.0 mph 81 % 0.00 in 104 W/m2
14:48 42.1 °F 36.7 °F 29.77 in NW 6.0 mph 12.0 mph 81 % 0.00 in 93 W/m2
14:53 42.3 °F 36.8 °F 29.77 in NW 7.0 mph 12.0 mph 81 % 0.00 in 47 W/m2
14:58 42.3 °F 36.8 °F 29.77 in NW 7.0 mph 12.0 mph 81 % 0.00 in 26 W/m2
14:59 42.3 °F 36.8 °F 29.77 in NW 7.0 mph 15.0 mph 81 % 0.00 in 23 W/m2
15:03 42.1 °F 36.4 °F 29.78 in NW 7.0 mph 12.0 mph 80 % 0.00 in 19 W/m2
15:08 42.1 °F 36.7 °F 29.78 in NW 7.0 mph 13.0 mph 81 % 0.00 in 12 W/m2
15:13 41.9 °F 36.5 °F 29.78 in NW 8.0 mph 13.0 mph 81 % 0.00 in 9 W/m2
15:18 41.7 °F 36.3 °F 29.78 in NW 4.0 mph 9.0 mph 81 % 0.00 in 5 W/m2
15:23 41.7 °F 36.3 °F 29.78 in NW 9.0 mph 13.0 mph 81 % 0.00 in 0 W/m2
15:28 41.5 °F 36.1 °F 29.78 in NW 8.0 mph 11.0 mph 81 % 0.00 in 5 W/m2
15:33 41.5 °F 36.1 °F 29.78 in NW 7.0 mph 10.0 mph 81 % 0.00 in 5 W/m2
15:34 41.5 °F 36.1 °F 29.78 in WNW 7.0 mph 10.0 mph 81 % 0.00 in 5 W/m2
15:39 41.5 °F 36.1 °F 29.78 in NW 5.0 mph 9.0 mph 81 % 0.00 in 5 W/m2
15:44 41.5 °F 36.1 °F 29.78 in NW 8.0 mph 12.0 mph 81 % 0.00 in 5 W/m2
15:49 41.4 °F 36.0 °F 29.79 in NW 7.0 mph 13.0 mph 81 % 0.00 in 5 W/m2
15:57 41.4 °F 36.0 °F 29.78 in NW 6.0 mph 11.0 mph 81 % 0.00 in 0 W/m2
16:02 41.4 °F 36.0 °F 29.78 in NW 8.0 mph 14.0 mph 81 % 0.00 in 0 W/m2
16:07 41.4 °F 36.0 °F 29.78 in NW 6.0 mph 9.0 mph 81 % 0.00 in 0 W/m2
16:12 41.4 °F 36.0 °F 29.78 in NW 7.0 mph 14.0 mph 81 % 0.00 in 0 W/m2
16:22 41.2 °F 35.5 °F 29.79 in NW 6.0 mph 10.0 mph 80 % 0.00 in 0 W/m2
16:27 41.0 °F 35.3 °F 29.79 in WNW 7.0 mph 13.0 mph 80 % 0.00 in 0 W/m2
16:32 41.0 °F 35.3 °F 29.79 in WNW 7.0 mph 10.0 mph 80 % 0.00 in 0 W/m2
16:42 40.8 °F 35.4 °F 29.79 in WNW 7.0 mph 10.0 mph 81 % 0.00 in 0 W/m2
16:57 40.5 °F 34.8 °F 29.79 in WNW 7.0 mph 12.0 mph 80 % 0.00 in 0 W/m2
17:02 40.3 °F 34.9 °F 29.80 in WNW 7.0 mph 11.0 mph 81 % 0.00 in 0 W/m2
17:07 39.9 °F 34.6 °F 29.80 in WNW 6.0 mph 8.0 mph 81 % 0.00 in 0 W/m2
17:12 39.7 °F 34.4 °F 29.80 in WNW 6.0 mph 12.0 mph 81 % 0.00 in 0 W/m2
17:17 39.6 °F 34.5 °F 29.79 in WNW 6.0 mph 10.0 mph 82 % 0.00 in 0 W/m2
17:27 39.4 °F 34.3 °F 29.79 in WNW 7.0 mph 10.0 mph 82 % 0.00 in 0 W/m2
17:32 39.4 °F 34.3 °F 29.80 in WNW 9.0 mph 16.0 mph 82 % 0.00 in 0 W/m2
17:43 39.4 °F 34.3 °F 29.79 in NW 7.0 mph 14.0 mph 82 % 0.00 in 0 W/m2
18:01 38.8 °F 33.8 °F 29.80 in NW 9.0 mph 14.0 mph 82 % 0.00 in 0 W/m2
18:06 38.8 °F 33.8 °F 29.80 in NW 10.0 mph 14.0 mph 82 % 0.00 in 0 W/m2
18:16 38.7 °F 33.6 °F 29.80 in NW 7.0 mph 11.0 mph 82 % 0.00 in 0 W/m2
18:21 38.7 °F 33.6 °F 29.80 in WNW 8.0 mph 12.0 mph 82 % 0.00 in 0 W/m2
18:26 38.7 °F 33.6 °F 29.80 in NW 9.0 mph 18.0 mph 82 % 0.00 in 0 W/m2
18:31 38.7 °F 33.6 °F 29.80 in WNW 9.0 mph 14.0 mph 82 % 0.00 in 0 W/m2
18:36 38.5 °F 33.5 °F 29.80 in WNW 8.0 mph 12.0 mph 82 % 0.00 in 0 W/m2
18:46 38.5 °F 33.5 °F 29.80 in NW 7.0 mph 11.0 mph 82 % 0.00 in 0 W/m2
18:51 38.3 °F 33.3 °F 29.80 in NW 8.0 mph 13.0 mph 82 % 0.00 in 0 W/m2
18:56 38.3 °F 33.6 °F 29.81 in NW 9.0 mph 13.0 mph 83 % 0.00 in 0 W/m2
19:06 38.5 °F 33.5 °F 29.81 in WNW 8.0 mph 13.0 mph 82 % 0.00 in 0 W/m2
19:11 38.5 °F 33.5 °F 29.81 in WNW 8.0 mph 12.0 mph 82 % 0.00 in 0 W/m2
19:17 38.5 °F 33.5 °F 29.81 in NW 7.0 mph 14.0 mph 82 % 0.00 in 0 W/m2
19:22 38.5 °F 33.5 °F 29.81 in WNW 10.0 mph 14.0 mph 82 % 0.00 in 0 W/m2
19:28 38.3 °F 33.3 °F 29.81 in WNW 7.0 mph 11.0 mph 82 % 0.00 in 0 W/m2
19:33 38.3 °F 33.3 °F 29.80 in WNW 8.0 mph 13.0 mph 82 % 0.00 in 0 W/m2
19:38 38.1 °F 33.4 °F 29.80 in WNW 6.0 mph 13.0 mph 83 % 0.00 in 0 W/m2
19:43 37.9 °F 33.2 °F 29.80 in WNW 9.0 mph 15.0 mph 83 % 0.00 in 0 W/m2
19:58 37.8 °F 33.1 °F 29.80 in WNW 7.0 mph 14.0 mph 83 % 0.00 in 0 W/m2
20:03 37.6 °F 32.9 °F 29.81 in NW 8.0 mph 12.0 mph 83 % 0.00 in 0 W/m2
20:08 37.6 °F 32.9 °F 29.81 in WNW 7.0 mph 10.0 mph 83 % 0.00 in 0 W/m2
20:13 37.6 °F 33.2 °F 29.81 in NW 7.0 mph 10.0 mph 84 % 0.00 in 0 W/m2
20:19 37.6 °F 33.2 °F 29.81 in NW 7.0 mph 13.0 mph 84 % 0.00 in 0 W/m2
20:24 37.6 °F 33.2 °F 29.82 in NW 8.0 mph 12.0 mph 84 % 0.00 in 0 W/m2
20:39 37.8 °F 33.4 °F 29.82 in NW 5.0 mph 11.0 mph 84 % 0.00 in 0 W/m2
20:44 37.9 °F 33.5 °F 29.82 in NW 6.0 mph 9.0 mph 84 % 0.00 in 0 W/m2
20:54 38.1 °F 33.7 °F 29.81 in NW 8.0 mph 11.0 mph 84 % 0.00 in 0 W/m2
20:59 38.3 °F 33.9 °F 29.81 in NW 7.0 mph 12.0 mph 84 % 0.00 in 0 W/m2
21:09 38.1 °F 33.7 °F 29.81 in NW 8.0 mph 12.0 mph 84 % 0.00 in 0 W/m2
21:14 38.1 °F 33.7 °F 29.81 in NW 8.0 mph 11.0 mph 84 % 0.00 in 0 W/m2
21:24 38.1 °F 33.7 °F 29.81 in NW 8.0 mph 11.0 mph 84 % 0.00 in 0 W/m2
21:34 38.5 °F 34.4 °F 29.81 in WNW 9.0 mph 12.0 mph 85 % 0.00 in 0 W/m2
21:39 38.5 °F 34.1 °F 29.81 in NW 7.0 mph 11.0 mph 84 % 0.00 in 0 W/m2
21:44 38.7 °F 34.2 °F 29.81 in WNW 9.0 mph 15.0 mph 84 % 0.00 in 0 W/m2
21:49 38.7 °F 34.2 °F 29.81 in NW 8.0 mph 14.0 mph 84 % 0.00 in 0 W/m2
22:04 38.8 °F 34.4 °F 29.82 in NW 6.0 mph 10.0 mph 84 % 0.00 in 0 W/m2
22:09 38.8 °F 34.4 °F 29.82 in NW 5.0 mph 8.0 mph 84 % 0.00 in 0 W/m2
22:14 38.8 °F 34.4 °F 29.82 in NW 4.0 mph 7.0 mph 84 % 0.00 in 0 W/m2
22:19 38.8 °F 34.4 °F 29.82 in NW 7.0 mph 11.0 mph 84 % 0.00 in 0 W/m2
22:24 38.8 °F 34.4 °F 29.82 in NW 6.0 mph 8.0 mph 84 % 0.00 in 0 W/m2
22:29 38.7 °F 34.5 °F 29.82 in WNW 5.0 mph 9.0 mph 85 % 0.00 in 0 W/m2
22:34 38.5 °F 34.4 °F 29.82 in WNW 6.0 mph 10.0 mph 85 % 0.00 in 0 W/m2
22:39 38.3 °F 34.2 °F 29.82 in NW 6.0 mph 10.0 mph 85 % 0.00 in 0 W/m2
22:59 37.9 °F 34.1 °F 29.82 in WNW 7.0 mph 11.0 mph 86 % 0.00 in 0 W/m2
23:04 37.9 °F 34.1 °F 29.82 in WNW 6.0 mph 9.0 mph 86 % 0.00 in 0 W/m2
23:09 37.8 °F 33.9 °F 29.82 in NW 8.0 mph 13.0 mph 86 % 0.00 in 0 W/m2
23:14 37.8 °F 33.9 °F 29.83 in WNW 6.0 mph 10.0 mph 86 % 0.00 in 0 W/m2
23:19 37.6 °F 33.8 °F 29.83 in WNW 8.0 mph 12.0 mph 86 % 0.00 in 0 W/m2
23:34 37.4 °F 33.6 °F 29.83 in NW 6.0 mph 10.0 mph 86 % 0.00 in 0 W/m2
23:39 37.2 °F 33.4 °F 29.83 in NW 7.0 mph 11.0 mph 86 % 0.00 in 0 W/m2
23:49 37.2 °F 33.4 °F 29.83 in WNW 9.0 mph 14.0 mph 86 % 0.00 in 0 W/m2
23:54 37.4 °F 33.6 °F 29.83 in NW 7.0 mph 13.0 mph 86 % 0.00 in 0 W/m2
Delerius-Weather
Compliments of Weather Underground - 1.75 mb

Data updates at regular intervals.